sensor_id;sensor_type;location;lat;lon;timestamp;P1;durP1;ratioP1;P2;durP2;ratioP2
58615;SDS011;44385;51.992;4.206;2023-05-10T00:02:25;31.38;;;23.33;;
58615;SDS011;44385;51.992;4.206;2023-05-10T00:07:19;48.13;;;30.40;;
58615;SDS011;44385;51.992;4.206;2023-05-10T00:09:45;50.20;;;31.85;;
58615;SDS011;44385;51.992;4.206;2023-05-10T00:12:12;54.00;;;33.95;;
58615;SDS011;44385;51.992;4.206;2023-05-10T00:14:39;38.47;;;27.42;;
58615;SDS011;44385;51.992;4.206;2023-05-10T00:17:06;44.85;;;30.30;;
58615;SDS011;44385;51.992;4.206;2023-05-10T00:19:32;53.38;;;33.03;;
58615;SDS011;44385;51.992;4.206;2023-05-10T00:21:58;37.80;;;26.33;;
58615;SDS011;44385;51.992;4.206;2023-05-10T00:24:26;51.67;;;33.80;;
58615;SDS011;44385;51.992;4.206;2023-05-10T00:26:52;41.53;;;29.77;;
58615;SDS011;44385;51.992;4.206;2023-05-10T00:29:19;45.47;;;31.30;;
58615;SDS011;44385;51.992;4.206;2023-05-10T00:31:45;43.97;;;29.83;;
58615;SDS011;44385;51.992;4.206;2023-05-10T00:34:12;59.15;;;34.08;;
58615;SDS011;44385;51.992;4.206;2023-05-10T00:36:39;49.50;;;32.33;;
58615;SDS011;44385;51.992;4.206;2023-05-10T00:39:05;46.47;;;32.28;;
58615;SDS011;44385;51.992;4.206;2023-05-10T00:41:34;45.78;;;30.92;;
58615;SDS011;44385;51.992;4.206;2023-05-10T00:44:00;45.85;;;29.38;;
58615;SDS011;44385;51.992;4.206;2023-05-10T00:46:27;55.22;;;33.67;;
58615;SDS011;44385;51.992;4.206;2023-05-10T00:48:54;51.38;;;32.85;;
58615;SDS011;44385;51.992;4.206;2023-05-10T00:51:20;47.45;;;31.15;;
58615;SDS011;44385;51.992;4.206;2023-05-10T00:53:47;54.67;;;32.55;;
58615;SDS011;44385;51.992;4.206;2023-05-10T00:56:16;43.80;;;26.30;;
58615;SDS011;44385;51.992;4.206;2023-05-10T00:58:43;53.88;;;33.95;;
58615;SDS011;44385;51.992;4.206;2023-05-10T01:01:12;56.03;;;31.08;;
58615;SDS011;44385;51.992;4.206;2023-05-10T01:03:39;37.88;;;26.20;;
58615;SDS011;44385;51.992;4.206;2023-05-10T01:06:06;50.00;;;29.10;;
58615;SDS011;44385;51.992;4.206;2023-05-10T01:08:34;57.10;;;30.63;;
58615;SDS011;44385;51.992;4.206;2023-05-10T01:11:01;55.67;;;31.55;;
58615;SDS011;44385;51.992;4.206;2023-05-10T01:13:30;57.10;;;30.42;;
58615;SDS011;44385;51.992;4.206;2023-05-10T01:18:25;47.38;;;27.23;;
58615;SDS011;44385;51.992;4.206;2023-05-10T01:21:04;40.40;;;27.73;;
58615;SDS011;44385;51.992;4.206;2023-05-10T01:26:33;45.00;;;27.20;;
58615;SDS011;44385;51.992;4.206;2023-05-10T01:29:14;44.20;;;28.33;;
58615;SDS011;44385;51.992;4.206;2023-05-10T01:31:56;43.05;;;28.00;;
58615;SDS011;44385;51.992;4.206;2023-05-10T01:34:25;37.58;;;25.63;;
58615;SDS011;44385;51.992;4.206;2023-05-10T01:36:54;37.38;;;22.55;;
58615;SDS011;44385;51.992;4.206;2023-05-10T01:39:24;35.20;;;25.80;;
58615;SDS011;44385;51.992;4.206;2023-05-10T01:41:52;35.38;;;25.42;;
58615;SDS011;44385;51.992;4.206;2023-05-10T01:44:23;44.55;;;30.73;;
58615;SDS011;44385;51.992;4.206;2023-05-10T01:46:53;38.85;;;24.40;;
58615;SDS011;44385;51.992;4.206;2023-05-10T01:49:23;33.33;;;27.67;;
58615;SDS011;44385;51.992;4.206;2023-05-10T01:51:50;33.20;;;24.33;;
58615;SDS011;44385;51.992;4.206;2023-05-10T01:54:19;43.17;;;28.97;;
58615;SDS011;44385;51.992;4.206;2023-05-10T01:56:46;40.05;;;28.60;;
58615;SDS011;44385;51.992;4.206;2023-05-10T01:59:17;32.35;;;26.15;;
58615;SDS011;44385;51.992;4.206;2023-05-10T02:01:44;32.10;;;22.00;;
58615;SDS011;44385;51.992;4.206;2023-05-10T02:04:15;39.60;;;23.75;;
58615;SDS011;44385;51.992;4.206;2023-05-10T02:06:44;38.17;;;27.23;;
58615;SDS011;44385;51.992;4.206;2023-05-10T02:09:14;40.88;;;28.13;;
58615;SDS011;44385;51.992;4.206;2023-05-10T02:11:42;39.25;;;29.48;;
58615;SDS011;44385;51.992;4.206;2023-05-10T02:14:09;34.58;;;27.08;;
58615;SDS011;44385;51.992;4.206;2023-05-10T02:16:37;31.77;;;23.85;;
58615;SDS011;44385;51.992;4.206;2023-05-10T02:19:05;36.47;;;23.95;;
58615;SDS011;44385;51.992;4.206;2023-05-10T02:21:33;32.22;;;26.08;;
58615;SDS011;44385;51.992;4.206;2023-05-10T02:24:02;35.85;;;24.20;;
58615;SDS011;44385;51.992;4.206;2023-05-10T02:26:28;38.95;;;26.05;;
58615;SDS011;44385;51.992;4.206;2023-05-10T02:28:55;44.63;;;27.45;;
58615;SDS011;44385;51.992;4.206;2023-05-10T02:31:23;44.30;;;27.65;;
58615;SDS011;44385;51.992;4.206;2023-05-10T02:33:50;40.60;;;27.48;;
58615;SDS011;44385;51.992;4.206;2023-05-10T02:36:17;42.28;;;28.13;;
58615;SDS011;44385;51.992;4.206;2023-05-10T02:38:51;43.50;;;28.02;;
58615;SDS011;44385;51.992;4.206;2023-05-10T02:41:19;41.40;;;26.05;;
58615;SDS011;44385;51.992;4.206;2023-05-10T02:46:14;45.33;;;26.58;;
58615;SDS011;44385;51.992;4.206;2023-05-10T02:48:41;44.75;;;28.55;;
58615;SDS011;44385;51.992;4.206;2023-05-10T02:51:07;49.47;;;29.48;;
58615;SDS011;44385;51.992;4.206;2023-05-10T02:53:36;55.15;;;29.15;;
58615;SDS011;44385;51.992;4.206;2023-05-10T02:56:05;52.30;;;26.67;;
58615;SDS011;44385;51.992;4.206;2023-05-10T02:58:34;49.60;;;26.85;;
58615;SDS011;44385;51.992;4.206;2023-05-10T03:01:01;46.90;;;26.83;;
58615;SDS011;44385;51.992;4.206;2023-05-10T03:03:27;50.45;;;26.73;;
58615;SDS011;44385;51.992;4.206;2023-05-10T03:05:53;46.30;;;24.98;;
58615;SDS011;44385;51.992;4.206;2023-05-10T03:08:21;45.92;;;25.45;;
58615;SDS011;44385;51.992;4.206;2023-05-10T03:10:55;46.78;;;23.75;;
58615;SDS011;44385;51.992;4.206;2023-05-10T03:13:28;45.08;;;26.33;;
58615;SDS011;44385;51.992;4.206;2023-05-10T03:15:59;65.78;;;29.10;;
58615;SDS011;44385;51.992;4.206;2023-05-10T03:18:32;46.78;;;26.88;;
58615;SDS011;44385;51.992;4.206;2023-05-10T03:21:01;49.25;;;26.65;;
58615;SDS011;44385;51.992;4.206;2023-05-10T03:23:33;49.88;;;28.50;;
58615;SDS011;44385;51.992;4.206;2023-05-10T03:26:00;47.15;;;25.88;;
58615;SDS011;44385;51.992;4.206;2023-05-10T03:28:27;46.45;;;27.60;;
58615;SDS011;44385;51.992;4.206;2023-05-10T03:30:54;53.85;;;26.45;;
58615;SDS011;44385;51.992;4.206;2023-05-10T03:33:23;54.22;;;25.05;;
58615;SDS011;44385;51.992;4.206;2023-05-10T03:35:50;67.50;;;28.60;;
58615;SDS011;44385;51.992;4.206;2023-05-10T03:38:16;50.63;;;25.70;;
58615;SDS011;44385;51.992;4.206;2023-05-10T03:40:43;51.85;;;25.90;;
58615;SDS011;44385;51.992;4.206;2023-05-10T03:43:09;63.50;;;25.95;;
58615;SDS011;44385;51.992;4.206;2023-05-10T03:45:36;75.15;;;23.80;;
58615;SDS011;44385;51.992;4.206;2023-05-10T03:48:02;71.45;;;23.98;;
58615;SDS011;44385;51.992;4.206;2023-05-10T03:50:30;49.75;;;23.75;;
58615;SDS011;44385;51.992;4.206;2023-05-10T03:52:59;50.50;;;24.20;;
58615;SDS011;44385;51.992;4.206;2023-05-10T03:55:27;61.17;;;21.42;;
58615;SDS011;44385;51.992;4.206;2023-05-10T03:57:54;59.92;;;23.05;;
58615;SDS011;44385;51.992;4.206;2023-05-10T04:00:21;46.15;;;20.60;;
58615;SDS011;44385;51.992;4.206;2023-05-10T04:02:51;42.28;;;20.85;;
58615;SDS011;44385;51.992;4.206;2023-05-10T04:05:17;30.63;;;18.35;;
58615;SDS011;44385;51.992;4.206;2023-05-10T04:07:46;28.77;;;17.02;;
58615;SDS011;44385;51.992;4.206;2023-05-10T04:10:14;25.48;;;16.10;;
58615;SDS011;44385;51.992;4.206;2023-05-10T04:12:41;20.58;;;14.57;;
58615;SDS011;44385;51.992;4.206;2023-05-10T04:15:08;14.68;;;10.85;;
58615;SDS011;44385;51.992;4.206;2023-05-10T04:17:34;12.80;;;9.20;;
58615;SDS011;44385;51.992;4.206;2023-05-10T04:20:00;11.95;;;9.52;;
58615;SDS011;44385;51.992;4.206;2023-05-10T04:22:30;12.55;;;8.60;;
58615;SDS011;44385;51.992;4.206;2023-05-10T04:24:57;9.70;;;8.27;;
58615;SDS011;44385;51.992;4.206;2023-05-10T04:27:24;11.48;;;9.10;;
58615;SDS011;44385;51.992;4.206;2023-05-10T04:29:51;9.02;;;8.02;;
58615;SDS011;44385;51.992;4.206;2023-05-10T04:32:17;11.25;;;8.50;;
58615;SDS011;44385;51.992;4.206;2023-05-10T04:34:44;12.25;;;9.05;;
58615;SDS011;44385;51.992;4.206;2023-05-10T04:37:10;12.50;;;9.63;;
58615;SDS011;44385;51.992;4.206;2023-05-10T04:39:42;15.50;;;10.35;;
58615;SDS011;44385;51.992;4.206;2023-05-10T04:42:10;19.75;;;13.38;;
58615;SDS011;44385;51.992;4.206;2023-05-10T04:44:40;17.52;;;11.57;;
58615;SDS011;44385;51.992;4.206;2023-05-10T04:47:07;24.40;;;14.85;;
58615;SDS011;44385;51.992;4.206;2023-05-10T04:49:33;23.10;;;13.93;;
58615;SDS011;44385;51.992;4.206;2023-05-10T04:52:00;29.00;;;14.20;;
58615;SDS011;44385;51.992;4.206;2023-05-10T04:54:26;38.50;;;17.65;;
58615;SDS011;44385;51.992;4.206;2023-05-10T04:56:52;28.30;;;14.98;;
58615;SDS011;44385;51.992;4.206;2023-05-10T04:59:20;27.23;;;14.95;;
58615;SDS011;44385;51.992;4.206;2023-05-10T05:01:51;26.55;;;15.20;;
58615;SDS011;44385;51.992;4.206;2023-05-10T05:04:17;35.10;;;18.60;;
58615;SDS011;44385;51.992;4.206;2023-05-10T05:06:44;28.58;;;15.35;;
58615;SDS011;44385;51.992;4.206;2023-05-10T05:09:10;27.43;;;14.83;;
58615;SDS011;44385;51.992;4.206;2023-05-10T05:11:37;26.15;;;14.90;;
58615;SDS011;44385;51.992;4.206;2023-05-10T05:14:05;27.15;;;15.48;;
58615;SDS011;44385;51.992;4.206;2023-05-10T05:16:33;22.77;;;13.82;;
58615;SDS011;44385;51.992;4.206;2023-05-10T05:18:59;20.73;;;12.00;;
58615;SDS011;44385;51.992;4.206;2023-05-10T05:21:26;17.83;;;11.70;;
58615;SDS011;44385;51.992;4.206;2023-05-10T05:23:52;18.08;;;11.07;;
58615;SDS011;44385;51.992;4.206;2023-05-10T05:26:18;18.30;;;11.48;;
58615;SDS011;44385;51.992;4.206;2023-05-10T05:28:45;24.95;;;14.52;;
58615;SDS011;44385;51.992;4.206;2023-05-10T05:31:13;21.88;;;15.30;;
58615;SDS011;44385;51.992;4.206;2023-05-10T05:33:41;22.50;;;12.82;;
58615;SDS011;44385;51.992;4.206;2023-05-10T05:36:07;24.08;;;12.80;;
58615;SDS011;44385;51.992;4.206;2023-05-10T05:38:34;21.85;;;12.35;;
58615;SDS011;44385;51.992;4.206;2023-05-10T05:41:00;16.92;;;11.88;;
58615;SDS011;44385;51.992;4.206;2023-05-10T05:43:27;24.08;;;14.40;;
58615;SDS011;44385;51.992;4.206;2023-05-10T05:45:54;18.80;;;14.80;;
58615;SDS011;44385;51.992;4.206;2023-05-10T05:48:24;13.40;;;11.60;;
58615;SDS011;44385;51.992;4.206;2023-05-10T05:50:55;18.85;;;12.85;;
58615;SDS011;44385;51.992;4.206;2023-05-10T05:53:22;26.05;;;17.58;;
58615;SDS011;44385;51.992;4.206;2023-05-10T05:55:52;26.83;;;15.35;;
58615;SDS011;44385;51.992;4.206;2023-05-10T05:58:19;18.88;;;14.38;;
58615;SDS011;44385;51.992;4.206;2023-05-10T06:00:45;26.13;;;15.95;;
58615;SDS011;44385;51.992;4.206;2023-05-10T06:03:12;24.10;;;15.25;;
58615;SDS011;44385;51.992;4.206;2023-05-10T06:05:38;20.35;;;13.55;;
58615;SDS011;44385;51.992;4.206;2023-05-10T06:08:06;15.60;;;10.57;;
58615;SDS011;44385;51.992;4.206;2023-05-10T06:10:33;14.90;;;9.48;;
58615;SDS011;44385;51.992;4.206;2023-05-10T06:12:59;18.52;;;8.93;;
58615;SDS011;44385;51.992;4.206;2023-05-10T06:15:25;13.52;;;7.78;;
58615;SDS011;44385;51.992;4.206;2023-05-10T06:17:52;11.45;;;8.50;;
58615;SDS011;44385;51.992;4.206;2023-05-10T06:20:19;13.48;;;8.20;;
58615;SDS011;44385;51.992;4.206;2023-05-10T06:22:45;17.70;;;8.38;;
58615;SDS011;44385;51.992;4.206;2023-05-10T06:25:13;12.43;;;8.80;;
58615;SDS011;44385;51.992;4.206;2023-05-10T06:27:42;23.80;;;10.02;;
58615;SDS011;44385;51.992;4.206;2023-05-10T06:30:09;15.00;;;9.23;;
58615;SDS011;44385;51.992;4.206;2023-05-10T06:32:36;15.63;;;9.27;;
58615;SDS011;44385;51.992;4.206;2023-05-10T06:35:03;10.60;;;8.15;;
58615;SDS011;44385;51.992;4.206;2023-05-10T06:37:29;11.52;;;7.47;;
58615;SDS011;44385;51.992;4.206;2023-05-10T06:39:56;14.07;;;8.90;;
58615;SDS011;44385;51.992;4.206;2023-05-10T06:42:24;18.10;;;8.93;;
58615;SDS011;44385;51.992;4.206;2023-05-10T06:44:50;10.85;;;7.25;;
58615;SDS011;44385;51.992;4.206;2023-05-10T06:47:17;15.65;;;8.32;;
58615;SDS011;44385;51.992;4.206;2023-05-10T06:49:43;15.38;;;8.77;;
58615;SDS011;44385;51.992;4.206;2023-05-10T06:52:10;11.30;;;7.47;;
58615;SDS011;44385;51.992;4.206;2023-05-10T06:54:39;14.40;;;8.57;;
58615;SDS011;44385;51.992;4.206;2023-05-10T06:57:06;14.50;;;8.80;;
58615;SDS011;44385;51.992;4.206;2023-05-10T06:59:33;12.27;;;8.70;;
58615;SDS011;44385;51.992;4.206;2023-05-10T07:02:01;12.88;;;8.43;;
58615;SDS011;44385;51.992;4.206;2023-05-10T07:04:28;12.18;;;9.10;;
58615;SDS011;44385;51.992;4.206;2023-05-10T07:06:54;11.23;;;9.35;;
58615;SDS011;44385;51.992;4.206;2023-05-10T07:09:21;13.52;;;9.35;;
58615;SDS011;44385;51.992;4.206;2023-05-10T07:11:49;14.38;;;9.80;;
58615;SDS011;44385;51.992;4.206;2023-05-10T07:14:16;11.00;;;9.00;;
58615;SDS011;44385;51.992;4.206;2023-05-10T07:16:44;11.60;;;8.07;;
58615;SDS011;44385;51.992;4.206;2023-05-10T07:19:10;11.35;;;8.48;;
58615;SDS011;44385;51.992;4.206;2023-05-10T07:21:37;9.60;;;7.53;;
58615;SDS011;44385;51.992;4.206;2023-05-10T07:24:05;9.25;;;7.63;;
58615;SDS011;44385;51.992;4.206;2023-05-10T07:26:31;10.20;;;7.07;;
58615;SDS011;44385;51.992;4.206;2023-05-10T07:28:58;10.75;;;7.10;;
58615;SDS011;44385;51.992;4.206;2023-05-10T07:31:24;8.65;;;7.05;;
58615;SDS011;44385;51.992;4.206;2023-05-10T07:33:52;7.03;;;6.32;;
58615;SDS011;44385;51.992;4.206;2023-05-10T07:36:18;6.82;;;5.75;;
58615;SDS011;44385;51.992;4.206;2023-05-10T07:38:44;6.95;;;5.72;;
58615;SDS011;44385;51.992;4.206;2023-05-10T07:41:12;6.93;;;5.30;;
58615;SDS011;44385;51.992;4.206;2023-05-10T07:43:38;8.52;;;5.95;;
58615;SDS011;44385;51.992;4.206;2023-05-10T07:46:08;6.78;;;4.57;;
58615;SDS011;44385;51.992;4.206;2023-05-10T07:48:36;5.45;;;4.55;;
58615;SDS011;44385;51.992;4.206;2023-05-10T07:51:04;6.05;;;4.75;;
58615;SDS011;44385;51.992;4.206;2023-05-10T07:53:31;5.68;;;4.80;;
58615;SDS011;44385;51.992;4.206;2023-05-10T07:55:57;6.20;;;5.25;;
58615;SDS011;44385;51.992;4.206;2023-05-10T07:58:24;8.65;;;6.68;;
58615;SDS011;44385;51.992;4.206;2023-05-10T08:00:54;9.95;;;6.55;;
58615;SDS011;44385;51.992;4.206;2023-05-10T08:03:24;12.85;;;8.27;;
58615;SDS011;44385;51.992;4.206;2023-05-10T08:05:50;8.80;;;7.53;;
58615;SDS011;44385;51.992;4.206;2023-05-10T08:08:18;14.15;;;8.55;;
58615;SDS011;44385;51.992;4.206;2023-05-10T08:13:13;11.63;;;7.70;;
58615;SDS011;44385;51.992;4.206;2023-05-10T08:15:39;14.35;;;8.98;;
58615;SDS011;44385;51.992;4.206;2023-05-10T08:18:05;10.55;;;7.75;;
58615;SDS011;44385;51.992;4.206;2023-05-10T08:20:32;11.15;;;7.55;;
58615;SDS011;44385;51.992;4.206;2023-05-10T08:22:58;10.55;;;7.65;;
58615;SDS011;44385;51.992;4.206;2023-05-10T08:25:26;10.32;;;8.00;;
58615;SDS011;44385;51.992;4.206;2023-05-10T08:27:53;9.80;;;6.82;;
58615;SDS011;44385;51.992;4.206;2023-05-10T08:30:19;10.35;;;6.97;;
58615;SDS011;44385;51.992;4.206;2023-05-10T08:32:45;10.65;;;6.82;;
58615;SDS011;44385;51.992;4.206;2023-05-10T08:35:12;9.70;;;6.43;;
58615;SDS011;44385;51.992;4.206;2023-05-10T08:37:38;7.70;;;6.38;;
58615;SDS011;44385;51.992;4.206;2023-05-10T08:40:05;6.20;;;5.55;;
58615;SDS011;44385;51.992;4.206;2023-05-10T08:42:34;10.48;;;5.53;;
58615;SDS011;44385;51.992;4.206;2023-05-10T08:45:01;7.60;;;6.07;;
58615;SDS011;44385;51.992;4.206;2023-05-10T08:47:28;9.00;;;6.10;;
58615;SDS011;44385;51.992;4.206;2023-05-10T08:49:55;8.73;;;6.07;;
58615;SDS011;44385;51.992;4.206;2023-05-10T08:52:23;7.35;;;5.95;;
58615;SDS011;44385;51.992;4.206;2023-05-10T08:54:51;6.90;;;6.00;;
58615;SDS011;44385;51.992;4.206;2023-05-10T08:57:18;11.50;;;6.43;;
58615;SDS011;44385;51.992;4.206;2023-05-10T08:59:46;10.20;;;6.45;;
58615;SDS011;44385;51.992;4.206;2023-05-10T09:02:12;10.02;;;6.72;;
58615;SDS011;44385;51.992;4.206;2023-05-10T09:04:39;10.05;;;6.53;;
58615;SDS011;44385;51.992;4.206;2023-05-10T09:07:06;12.20;;;6.82;;
58615;SDS011;44385;51.992;4.206;2023-05-10T09:09:32;11.80;;;7.50;;
58615;SDS011;44385;51.992;4.206;2023-05-10T09:11:59;10.95;;;7.63;;
58615;SDS011;44385;51.992;4.206;2023-05-10T09:14:26;10.73;;;7.00;;
58615;SDS011;44385;51.992;4.206;2023-05-10T09:16:54;10.57;;;6.60;;
58615;SDS011;44385;51.992;4.206;2023-05-10T09:19:21;10.15;;;7.18;;
58615;SDS011;44385;51.992;4.206;2023-05-10T09:21:48;9.85;;;6.82;;
58615;SDS011;44385;51.992;4.206;2023-05-10T09:24:15;10.25;;;7.07;;
58615;SDS011;44385;51.992;4.206;2023-05-10T09:26:45;10.77;;;7.43;;
58615;SDS011;44385;51.992;4.206;2023-05-10T09:29:12;9.38;;;6.75;;
58615;SDS011;44385;51.992;4.206;2023-05-10T09:31:49;7.63;;;6.13;;
58615;SDS011;44385;51.992;4.206;2023-05-10T09:34:19;10.30;;;5.55;;
58615;SDS011;44385;51.992;4.206;2023-05-10T09:36:50;7.13;;;5.00;;
58615;SDS011;44385;51.992;4.206;2023-05-10T09:39:17;6.13;;;5.53;;
58615;SDS011;44385;51.992;4.206;2023-05-10T09:41:43;6.00;;;5.32;;
58615;SDS011;44385;51.992;4.206;2023-05-10T09:44:10;6.35;;;5.75;;
58615;SDS011;44385;51.992;4.206;2023-05-10T09:46:38;5.82;;;5.32;;
58615;SDS011;44385;51.992;4.206;2023-05-10T09:49:05;6.30;;;5.70;;
58615;SDS011;44385;51.992;4.206;2023-05-10T09:51:32;6.38;;;5.65;;
58615;SDS011;44385;51.992;4.206;2023-05-10T09:54:10;5.55;;;5.05;;
58615;SDS011;44385;51.992;4.206;2023-05-10T09:56:37;6.22;;;5.55;;
58615;SDS011;44385;51.992;4.206;2023-05-10T09:59:04;9.20;;;6.38;;
58615;SDS011;44385;51.992;4.206;2023-05-10T10:01:30;9.25;;;7.03;;
58615;SDS011;44385;51.992;4.206;2023-05-10T10:03:57;7.82;;;7.10;;
58615;SDS011;44385;51.992;4.206;2023-05-10T10:06:23;9.18;;;7.90;;
58615;SDS011;44385;51.992;4.206;2023-05-10T10:08:51;10.70;;;7.90;;
58615;SDS011;44385;51.992;4.206;2023-05-10T10:11:19;8.27;;;7.47;;
58615;SDS011;44385;51.992;4.206;2023-05-10T10:13:45;8.23;;;7.35;;
58615;SDS011;44385;51.992;4.206;2023-05-10T10:16:12;8.50;;;7.15;;
58615;SDS011;44385;51.992;4.206;2023-05-10T10:18:39;6.93;;;6.28;;
58615;SDS011;44385;51.992;4.206;2023-05-10T10:21:05;9.55;;;7.18;;
58615;SDS011;44385;51.992;4.206;2023-05-10T10:23:33;11.85;;;7.45;;
58615;SDS011;44385;51.992;4.206;2023-05-10T10:26:02;9.77;;;8.45;;
58615;SDS011;44385;51.992;4.206;2023-05-10T10:28:32;9.82;;;8.13;;
58615;SDS011;44385;51.992;4.206;2023-05-10T10:31:10;9.48;;;8.35;;
58615;SDS011;44385;51.992;4.206;2023-05-10T10:33:40;9.20;;;7.35;;
58615;SDS011;44385;51.992;4.206;2023-05-10T10:36:14;12.75;;;7.60;;
58615;SDS011;44385;51.992;4.206;2023-05-10T10:41:29;8.40;;;6.60;;
58615;SDS011;44385;51.992;4.206;2023-05-10T10:46:58;10.45;;;7.50;;
58615;SDS011;44385;51.992;4.206;2023-05-10T10:49:24;13.68;;;9.23;;
58615;SDS011;44385;51.992;4.206;2023-05-10T10:54:36;10.55;;;7.63;;
58615;SDS011;44385;51.992;4.206;2023-05-10T10:57:17;11.82;;;8.00;;
58615;SDS011;44385;51.992;4.206;2023-05-10T10:59:44;10.77;;;7.43;;
58615;SDS011;44385;51.992;4.206;2023-05-10T11:04:52;9.15;;;7.18;;
58615;SDS011;44385;51.992;4.206;2023-05-10T11:07:19;12.25;;;7.38;;
58615;SDS011;44385;51.992;4.206;2023-05-10T11:09:46;9.07;;;7.05;;
58615;SDS011;44385;51.992;4.206;2023-05-10T11:12:13;13.45;;;7.00;;
58615;SDS011;44385;51.992;4.206;2023-05-10T11:14:41;11.63;;;8.20;;
58615;SDS011;44385;51.992;4.206;2023-05-10T11:17:23;10.48;;;7.45;;
58615;SDS011;44385;51.992;4.206;2023-05-10T11:20:02;9.15;;;7.18;;
58615;SDS011;44385;51.992;4.206;2023-05-10T11:22:29;11.00;;;7.78;;
58615;SDS011;44385;51.992;4.206;2023-05-10T11:25:23;11.38;;;8.48;;
58615;SDS011;44385;51.992;4.206;2023-05-10T11:27:52;10.38;;;8.02;;
58615;SDS011;44385;51.992;4.206;2023-05-10T11:30:20;10.80;;;8.27;;
58615;SDS011;44385;51.992;4.206;2023-05-10T11:32:47;11.27;;;7.45;;
58615;SDS011;44385;51.992;4.206;2023-05-10T11:35:14;11.32;;;7.82;;
58615;SDS011;44385;51.992;4.206;2023-05-10T11:37:40;9.60;;;6.97;;
58615;SDS011;44385;51.992;4.206;2023-05-10T11:40:09;14.00;;;8.82;;
58615;SDS011;44385;51.992;4.206;2023-05-10T11:42:36;12.00;;;7.70;;
58615;SDS011;44385;51.992;4.206;2023-05-10T11:45:03;12.77;;;7.85;;
58615;SDS011;44385;51.992;4.206;2023-05-10T11:47:30;11.18;;;6.28;;
58615;SDS011;44385;51.992;4.206;2023-05-10T11:49:57;10.45;;;6.40;;
58615;SDS011;44385;51.992;4.206;2023-05-10T11:52:23;8.25;;;6.10;;
58615;SDS011;44385;51.992;4.206;2023-05-10T11:54:53;10.73;;;7.10;;
58615;SDS011;44385;51.992;4.206;2023-05-10T11:59:46;12.32;;;7.13;;
58615;SDS011;44385;51.992;4.206;2023-05-10T12:02:12;10.93;;;6.25;;
58615;SDS011;44385;51.992;4.206;2023-05-10T12:04:40;10.10;;;7.43;;
58615;SDS011;44385;51.992;4.206;2023-05-10T12:07:08;10.38;;;7.13;;
58615;SDS011;44385;51.992;4.206;2023-05-10T12:09:35;8.55;;;6.97;;
58615;SDS011;44385;51.992;4.206;2023-05-10T12:12:01;11.38;;;6.60;;
58615;SDS011;44385;51.992;4.206;2023-05-10T12:14:28;9.27;;;6.55;;
58615;SDS011;44385;51.992;4.206;2023-05-10T12:16:58;8.90;;;6.50;;
58615;SDS011;44385;51.992;4.206;2023-05-10T12:19:24;9.43;;;6.45;;
58615;SDS011;44385;51.992;4.206;2023-05-10T12:21:52;9.73;;;6.95;;
58615;SDS011;44385;51.992;4.206;2023-05-10T12:24:18;8.75;;;6.13;;
58615;SDS011;44385;51.992;4.206;2023-05-10T12:26:46;7.65;;;5.70;;
58615;SDS011;44385;51.992;4.206;2023-05-10T12:29:13;9.05;;;6.30;;
58615;SDS011;44385;51.992;4.206;2023-05-10T12:31:53;9.38;;;6.50;;
58615;SDS011;44385;51.992;4.206;2023-05-10T12:34:23;6.80;;;5.05;;
58615;SDS011;44385;51.992;4.206;2023-05-10T12:36:53;6.90;;;5.13;;
58615;SDS011;44385;51.992;4.206;2023-05-10T12:39:19;6.53;;;5.53;;
58615;SDS011;44385;51.992;4.206;2023-05-10T12:41:46;11.18;;;5.68;;
58615;SDS011;44385;51.992;4.206;2023-05-10T12:44:12;6.78;;;5.97;;
58615;SDS011;44385;51.992;4.206;2023-05-10T12:46:38;9.30;;;5.80;;
58615;SDS011;44385;51.992;4.206;2023-05-10T12:49:05;7.45;;;5.28;;
58615;SDS011;44385;51.992;4.206;2023-05-10T12:51:31;8.63;;;6.03;;
58615;SDS011;44385;51.992;4.206;2023-05-10T12:53:59;9.27;;;5.88;;
58615;SDS011;44385;51.992;4.206;2023-05-10T12:56:26;5.95;;;4.93;;
58615;SDS011;44385;51.992;4.206;2023-05-10T12:58:52;6.43;;;5.53;;
58615;SDS011;44385;51.992;4.206;2023-05-10T13:01:18;8.85;;;5.45;;
58615;SDS011;44385;51.992;4.206;2023-05-10T13:03:45;7.15;;;5.28;;
58615;SDS011;44385;51.992;4.206;2023-05-10T13:06:14;6.85;;;5.22;;
58615;SDS011;44385;51.992;4.206;2023-05-10T13:08:40;6.03;;;4.47;;
58615;SDS011;44385;51.992;4.206;2023-05-10T13:11:08;7.13;;;5.03;;
58615;SDS011;44385;51.992;4.206;2023-05-10T13:13:34;7.35;;;4.65;;
58615;SDS011;44385;51.992;4.206;2023-05-10T13:16:01;5.57;;;5.00;;
58615;SDS011;44385;51.992;4.206;2023-05-10T13:18:27;9.18;;;5.78;;
58615;SDS011;44385;51.992;4.206;2023-05-10T13:20:53;6.57;;;5.65;;
58615;SDS011;44385;51.992;4.206;2023-05-10T13:23:20;7.20;;;4.95;;
58615;SDS011;44385;51.992;4.206;2023-05-10T13:25:47;4.70;;;4.25;;
58615;SDS011;44385;51.992;4.206;2023-05-10T13:28:15;6.00;;;4.68;;
58615;SDS011;44385;51.992;4.206;2023-05-10T13:30:41;8.85;;;5.35;;
58615;SDS011;44385;51.992;4.206;2023-05-10T13:33:08;5.93;;;4.80;;
58615;SDS011;44385;51.992;4.206;2023-05-10T13:35:35;5.03;;;4.03;;
58615;SDS011;44385;51.992;4.206;2023-05-10T13:38:01;5.68;;;4.10;;
58615;SDS011;44385;51.992;4.206;2023-05-10T13:40:28;5.75;;;4.70;;
58615;SDS011;44385;51.992;4.206;2023-05-10T13:42:54;8.30;;;5.00;;
58615;SDS011;44385;51.992;4.206;2023-05-10T13:45:22;5.13;;;4.25;;
58615;SDS011;44385;51.992;4.206;2023-05-10T13:47:51;4.80;;;4.25;;
58615;SDS011;44385;51.992;4.206;2023-05-10T13:50:17;5.70;;;3.90;;
58615;SDS011;44385;51.992;4.206;2023-05-10T13:52:44;5.90;;;3.83;;
58615;SDS011;44385;51.992;4.206;2023-05-10T13:55:10;8.68;;;4.50;;
58615;SDS011;44385;51.992;4.206;2023-05-10T13:57:38;5.85;;;5.03;;
58615;SDS011;44385;51.992;4.206;2023-05-10T14:00:05;6.80;;;5.32;;
58615;SDS011;44385;51.992;4.206;2023-05-10T14:02:32;7.32;;;5.53;;
58615;SDS011;44385;51.992;4.206;2023-05-10T14:04:59;9.50;;;6.13;;
58615;SDS011;44385;51.992;4.206;2023-05-10T14:07:25;8.10;;;5.88;;
58615;SDS011;44385;51.992;4.206;2023-05-10T14:09:52;6.05;;;5.22;;
58615;SDS011;44385;51.992;4.206;2023-05-10T14:12:18;7.38;;;5.30;;
58615;SDS011;44385;51.992;4.206;2023-05-10T14:14:44;7.28;;;4.47;;
58615;SDS011;44385;51.992;4.206;2023-05-10T14:17:14;6.70;;;6.03;;
58615;SDS011;44385;51.992;4.206;2023-05-10T14:19:41;7.35;;;4.53;;
58615;SDS011;44385;51.992;4.206;2023-05-10T14:22:08;6.72;;;4.85;;
58615;SDS011;44385;51.992;4.206;2023-05-10T14:24:34;7.38;;;4.60;;
58615;SDS011;44385;51.992;4.206;2023-05-10T14:27:01;6.15;;;4.97;;
58615;SDS011;44385;51.992;4.206;2023-05-10T14:29:27;5.55;;;4.72;;
58615;SDS011;44385;51.992;4.206;2023-05-10T14:31:54;5.88;;;4.63;;
58615;SDS011;44385;51.992;4.206;2023-05-10T14:34:20;4.50;;;4.10;;
58615;SDS011;44385;51.992;4.206;2023-05-10T14:36:48;4.05;;;3.75;;
58615;SDS011;44385;51.992;4.206;2023-05-10T14:39:15;4.55;;;4.10;;
58615;SDS011;44385;51.992;4.206;2023-05-10T14:41:41;4.55;;;4.03;;
58615;SDS011;44385;51.992;4.206;2023-05-10T14:44:09;4.60;;;3.97;;
58615;SDS011;44385;51.992;4.206;2023-05-10T14:46:36;5.25;;;4.40;;
58615;SDS011;44385;51.992;4.206;2023-05-10T14:49:03;5.28;;;4.78;;
58615;SDS011;44385;51.992;4.206;2023-05-10T14:51:29;6.65;;;4.35;;
58615;SDS011;44385;51.992;4.206;2023-05-10T14:53:58;5.30;;;4.80;;
58615;SDS011;44385;51.992;4.206;2023-05-10T14:56:24;6.15;;;5.10;;
58615;SDS011;44385;51.992;4.206;2023-05-10T14:58:51;7.68;;;5.97;;
58615;SDS011;44385;51.992;4.206;2023-05-10T15:01:18;6.90;;;5.60;;
58615;SDS011;44385;51.992;4.206;2023-05-10T15:03:44;6.20;;;5.60;;